createdAt,value
2022-11-24T00:00:49.375Z,17.25
2022-11-24T00:01:51.177Z,16.80
2022-11-24T00:02:53.192Z,17.02
2022-11-24T00:04:00.242Z,16.48
2022-11-24T00:05:01.949Z,17.55
2022-11-24T00:06:11.865Z,18.23
2022-11-24T00:07:13.667Z,18.55
2022-11-24T00:08:15.461Z,17.95
2022-11-24T00:09:17.211Z,18.55
2022-11-24T00:10:19.081Z,18.38
2022-11-24T00:11:23.222Z,18.27
2022-11-24T00:12:24.932Z,18.33
2022-11-24T00:13:26.832Z,17.17
2022-11-24T00:14:28.629Z,18.20
2022-11-24T00:15:30.355Z,18.05
2022-11-24T00:16:34.578Z,17.05
2022-11-24T00:17:36.375Z,17.02
2022-11-24T00:18:39.748Z,17.58
2022-11-24T00:19:44.499Z,16.98
2022-11-24T00:20:53.102Z,16.90
2022-11-24T00:21:54.908Z,18.27
2022-11-24T00:22:56.683Z,17.20
2022-11-24T00:23:58.991Z,17.48
2022-11-24T00:25:00.730Z,16.70
2022-11-24T00:26:11.557Z,17.13
2022-11-24T00:27:13.469Z,17.50
2022-11-24T00:28:15.221Z,17.63
2022-11-24T00:29:17.002Z,17.52
2022-11-24T00:30:18.792Z,17.90
2022-11-24T00:31:24.850Z,16.90
2022-11-24T00:32:30.310Z,16.58
2022-11-24T00:33:32.386Z,17.33
2022-11-24T00:34:34.415Z,17.13
2022-11-24T00:35:36.369Z,18.77
2022-11-24T00:36:38.416Z,17.13
2022-11-24T00:37:40.254Z,17.00
2022-11-24T00:38:42.203Z,16.35
2022-11-24T00:39:43.920Z,15.82
2022-11-24T00:40:45.637Z,15.07
2022-11-24T00:41:47.389Z,15.85
2022-11-24T00:42:49.191Z,16.33
2022-11-24T00:43:51.738Z,16.17
2022-11-24T00:44:53.472Z,17.38
2022-11-24T00:45:55.383Z,15.18
2022-11-24T00:46:57.314Z,15.32
2022-11-24T00:47:59.169Z,16.17
2022-11-24T00:49:01.192Z,15.57
2022-11-24T00:50:03.059Z,16.05
2022-11-24T00:51:07.997Z,15.68
2022-11-24T00:52:09.755Z,17.25
2022-11-24T00:53:11.487Z,16.48
2022-11-24T00:54:13.222Z,17.50
2022-11-24T00:55:15.080Z,15.98
2022-11-24T00:56:16.921Z,15.90
2022-11-24T00:57:18.672Z,15.90
2022-11-24T00:58:20.956Z,16.05
2022-11-24T00:59:22.690Z,17.05
2022-11-24T01:00:30.811Z,17.33
2022-11-24T01:01:32.608Z,17.25
2022-11-24T01:02:34.429Z,18.33
2022-11-24T01:03:36.526Z,17.00
2022-11-24T01:04:38.245Z,17.63
2022-11-24T01:05:40.701Z,17.20
2022-11-24T01:06:42.467Z,17.92
2022-11-24T01:07:44.362Z,17.52
2022-11-24T01:08:46.787Z,18.30
2022-11-24T01:09:48.526Z,18.02
2022-11-24T01:10:50.253Z,17.05
2022-11-24T01:12:04.437Z,17.70
2022-11-24T01:13:07.155Z,15.55
2022-11-24T01:14:08.913Z,15.38
2022-11-24T01:15:10.791Z,15.70
2022-11-24T01:16:19.142Z,15.23
2022-11-24T01:17:20.969Z,14.52
2022-11-24T01:18:22.687Z,14.35
2022-11-24T01:19:24.442Z,13.90
2022-11-24T01:20:26.164Z,13.23
2022-11-24T01:21:27.998Z,14.65
2022-11-24T01:22:29.727Z,20.05
2022-11-24T01:23:32.626Z,21.67
2022-11-24T01:24:34.588Z,22.40
2022-11-24T01:25:40.173Z,24.42
2022-11-24T01:26:42.440Z,20.27
2022-11-24T01:27:44.216Z,16.15
2022-11-24T01:28:47.707Z,14.70
2022-11-24T01:29:49.741Z,14.27
2022-11-24T01:31:17.675Z,13.07
2022-11-24T01:32:19.513Z,14.48
2022-11-24T01:33:21.291Z,14.15
2022-11-24T01:34:23.147Z,14.57
2022-11-24T01:35:24.868Z,14.35
2022-11-24T01:36:26.621Z,14.52
2022-11-24T01:37:28.333Z,13.40
2022-11-24T01:38:30.192Z,40.78
2022-11-24T01:39:31.942Z,49.63
2022-11-24T01:40:33.660Z,35.33
2022-11-24T01:41:35.861Z,21.80
2022-11-24T01:42:51.689Z,14.20
2022-11-24T01:43:55.436Z,13.30
2022-11-24T01:45:40.946Z,12.57
2022-11-24T01:46:46.812Z,12.20
2022-11-24T01:47:48.539Z,12.52
2022-11-24T01:49:02.047Z,13.38
2022-11-24T01:50:06.203Z,12.90
2022-11-24T01:51:10.338Z,13.60
2022-11-24T01:52:18.878Z,13.73
2022-11-24T01:53:23.484Z,13.35
2022-11-24T01:54:36.184Z,14.65
2022-11-24T01:55:39.952Z,14.20
2022-11-24T01:56:45.963Z,12.93
2022-11-24T01:58:05.965Z,13.20
2022-11-24T01:59:11.479Z,15.35
2022-11-24T02:00:14.909Z,12.98
2022-11-24T02:01:16.675Z,12.02
2022-11-24T02:02:19.817Z,11.70
2022-11-24T02:03:26.432Z,12.35
2022-11-24T02:04:33.454Z,13.05
2022-11-24T02:05:47.394Z,11.93
2022-11-24T02:06:49.152Z,11.65
2022-11-24T02:07:54.321Z,11.43
2022-11-24T02:09:02.512Z,12.02
2022-11-24T02:10:08.927Z,10.85
2022-11-24T02:11:10.997Z,12.10
2022-11-24T02:12:13.079Z,12.02
2022-11-24T02:13:15.893Z,12.43
2022-11-24T02:14:19.710Z,11.65
2022-11-24T02:15:21.598Z,12.32
2022-11-24T02:16:23.783Z,13.15
2022-11-24T02:17:25.611Z,13.00
2022-11-24T02:18:27.337Z,12.88
2022-11-24T02:19:38.097Z,13.65
2022-11-24T02:20:39.977Z,13.95
2022-11-24T02:21:41.771Z,14.35
2022-11-24T02:23:10.529Z,14.15
2022-11-24T02:24:20.897Z,14.32
2022-11-24T02:26:03.874Z,14.93
2022-11-24T02:27:05.670Z,14.07
2022-11-24T02:28:12.445Z,14.50
2022-11-24T02:29:15.228Z,14.52
2022-11-24T02:30:17.204Z,14.75
2022-11-24T02:31:19.132Z,13.52
2022-11-24T02:32:21.931Z,12.82
2022-11-24T02:33:25.468Z,13.18
2022-11-24T02:34:27.205Z,13.02
2022-11-24T02:35:29.180Z,14.57
2022-11-24T02:36:31.071Z,13.40
2022-11-24T02:37:32.810Z,13.73
2022-11-24T02:38:35.904Z,12.88
2022-11-24T02:39:38.087Z,13.57
2022-11-24T02:40:43.252Z,13.60
2022-11-24T02:42:01.771Z,13.50
2022-11-24T02:43:13.318Z,13.20
2022-11-24T02:44:17.987Z,12.55
2022-11-24T02:45:20.834Z,12.68
2022-11-24T02:46:23.138Z,12.80
2022-11-24T02:47:24.901Z,12.40
2022-11-24T02:48:26.844Z,12.85
2022-11-24T02:49:28.557Z,13.43
2022-11-24T02:50:30.322Z,13.23
2022-11-24T02:51:34.548Z,13.88
2022-11-24T02:52:36.244Z,14.13
2022-11-24T02:53:37.969Z,13.60
2022-11-24T02:54:39.735Z,14.05
2022-11-24T02:55:41.460Z,13.82
2022-11-24T02:56:43.186Z,13.88
2022-11-24T02:57:44.907Z,13.57
2022-11-24T02:58:46.656Z,12.55
2022-11-24T02:59:48.366Z,12.60
2022-11-24T03:00:50.418Z,10.05
2022-11-24T03:01:52.227Z,10.77
2022-11-24T03:02:54.241Z,9.73
2022-11-24T03:03:56.007Z,10.32
2022-11-24T03:04:57.769Z,9.77
2022-11-24T03:05:59.500Z,9.80
2022-11-24T03:07:01.253Z,10.80
2022-11-24T03:08:03.547Z,12.38
2022-11-24T03:09:06.333Z,11.27
2022-11-24T03:10:08.354Z,14.25
2022-11-24T03:11:10.049Z,13.55
2022-11-24T03:12:11.762Z,12.20
2022-11-24T03:13:13.721Z,12.60
2022-11-24T03:14:15.595Z,12.68
2022-11-24T03:15:17.456Z,11.70
2022-11-24T03:16:19.299Z,13.32
2022-11-24T03:17:21.146Z,13.00
2022-11-24T03:18:22.904Z,11.80
2022-11-24T03:19:24.647Z,12.68
2022-11-24T03:20:26.624Z,12.18
2022-11-24T03:21:28.822Z,12.43
2022-11-24T03:22:30.632Z,12.40
2022-11-24T03:23:32.420Z,12.23
2022-11-24T03:24:34.341Z,12.32
2022-11-24T03:25:36.326Z,13.25
2022-11-24T03:26:38.094Z,12.73
2022-11-24T03:27:39.856Z,11.48
2022-11-24T03:28:41.998Z,12.30
2022-11-24T03:29:43.720Z,11.52
2022-11-24T03:30:48.615Z,12.15
2022-11-24T03:31:50.470Z,12.20
2022-11-24T03:32:56.483Z,12.13
2022-11-24T03:33:58.209Z,10.73
2022-11-24T03:35:00.035Z,11.02
2022-11-24T03:36:02.032Z,11.60
2022-11-24T03:37:03.807Z,10.07
2022-11-24T03:38:05.541Z,10.48
2022-11-24T03:39:07.427Z,9.95
2022-11-24T03:40:09.746Z,9.98
2022-11-24T03:41:11.601Z,11.60
2022-11-24T03:42:13.326Z,10.35
2022-11-24T03:43:15.112Z,10.35
2022-11-24T03:44:17.087Z,10.05
2022-11-24T03:46:41.241Z,9.98
2022-11-24T03:47:43.039Z,9.43
2022-11-24T03:48:44.819Z,9.70
2022-11-24T03:49:46.596Z,9.57
2022-11-24T03:50:59.512Z,9.68
2022-11-24T03:52:06.555Z,9.95
2022-11-24T03:53:10.122Z,10.30
2022-11-24T03:54:12.006Z,9.20
2022-11-24T03:55:13.846Z,9.70
2022-11-24T03:56:16.568Z,8.43
2022-11-24T03:57:18.344Z,8.15
2022-11-24T03:58:20.501Z,9.07
2022-11-24T03:59:22.282Z,8.55
2022-11-24T04:00:24.010Z,8.75
2022-11-24T04:01:25.769Z,8.82
2022-11-24T04:02:27.538Z,8.85
2022-11-24T04:03:29.455Z,8.38
2022-11-24T04:04:31.272Z,8.38
2022-11-24T04:05:33.667Z,8.15
2022-11-24T04:06:35.420Z,7.75
2022-11-24T04:07:37.444Z,8.40
2022-11-24T04:08:39.213Z,7.32
2022-11-24T04:09:40.988Z,7.13
2022-11-24T04:10:43.071Z,6.78
2022-11-24T04:12:03.356Z,7.63
2022-11-24T04:13:10.894Z,8.25
2022-11-24T04:14:13.943Z,8.50
2022-11-24T04:15:18.517Z,8.38
2022-11-24T04:16:20.272Z,10.30
2022-11-24T04:17:22.020Z,8.68
2022-11-24T04:18:23.772Z,9.07
2022-11-24T04:19:25.490Z,8.70
2022-11-24T04:20:27.212Z,8.93
2022-11-24T04:21:28.966Z,8.60
2022-11-24T04:22:30.779Z,7.85
2022-11-24T04:23:32.548Z,8.98
2022-11-24T04:24:34.440Z,8.60
2022-11-24T04:25:37.154Z,7.65
2022-11-24T04:26:38.994Z,6.32
2022-11-24T04:27:40.727Z,6.60
2022-11-24T04:28:42.477Z,6.10
2022-11-24T04:29:44.342Z,6.22
2022-11-24T04:30:46.096Z,5.50
2022-11-24T04:31:47.923Z,5.53
2022-11-24T04:32:49.962Z,5.68
2022-11-24T04:33:51.678Z,5.30
2022-11-24T04:34:53.445Z,5.75
2022-11-24T04:35:55.218Z,6.20
2022-11-24T04:36:57.028Z,6.53
2022-11-24T04:38:02.715Z,6.88
2022-11-24T04:39:22.784Z,7.13
2022-11-24T04:40:26.267Z,6.20
2022-11-24T04:41:28.007Z,6.07
2022-11-24T04:42:29.818Z,6.22
2022-11-24T04:43:36.358Z,6.15
2022-11-24T04:44:40.908Z,5.38
2022-11-24T04:45:42.626Z,5.60
2022-11-24T04:46:44.579Z,5.80
2022-11-24T04:47:46.354Z,7.00
2022-11-24T04:48:48.138Z,6.72
2022-11-24T04:49:50.740Z,6.40
2022-11-24T04:50:52.950Z,6.03
2022-11-24T04:51:54.690Z,6.90
2022-11-24T04:52:56.512Z,6.65
2022-11-24T04:53:58.221Z,7.45
2022-11-24T04:54:59.936Z,7.15
2022-11-24T04:56:06.153Z,7.15
2022-11-24T04:57:07.944Z,6.35
2022-11-24T04:58:12.320Z,7.10
2022-11-24T04:59:15.194Z,7.20
2022-11-24T05:00:17.454Z,6.32
2022-11-24T05:01:19.256Z,6.95
2022-11-24T05:02:21.169Z,7.25
2022-11-24T05:03:22.933Z,6.63
2022-11-24T05:04:24.791Z,7.65
2022-11-24T05:05:26.545Z,7.97
2022-11-24T05:06:28.323Z,8.02
2022-11-24T05:07:30.140Z,7.22
2022-11-24T05:08:32.159Z,6.47
2022-11-24T05:09:58.131Z,5.75
2022-11-24T05:10:55.583Z,5.45
2022-11-24T05:11:57.295Z,4.82
2022-11-24T05:12:59.770Z,5.65
2022-11-24T05:14:02.052Z,6.07
2022-11-24T05:15:05.595Z,6.18
2022-11-24T05:16:07.605Z,7.05
2022-11-24T05:17:09.286Z,6.70
2022-11-24T05:18:13.775Z,6.10
2022-11-24T05:19:15.759Z,6.40
2022-11-24T05:20:18.378Z,5.68
2022-11-24T05:21:20.018Z,5.65
2022-11-24T05:22:21.665Z,5.93
2022-11-24T05:23:23.356Z,6.10
2022-11-24T05:24:24.990Z,5.13
2022-11-24T05:25:26.673Z,6.38
2022-11-24T05:26:28.425Z,6.93
2022-11-24T05:27:30.144Z,7.53
2022-11-24T05:28:32.091Z,6.95
2022-11-24T05:29:33.758Z,6.55
2022-11-24T05:30:38.247Z,6.85
2022-11-24T05:31:39.928Z,7.22
2022-11-24T05:32:41.729Z,6.75
2022-11-24T05:33:43.453Z,6.13
2022-11-24T05:34:45.155Z,6.28
2022-11-24T05:35:48.305Z,6.75
2022-11-24T05:36:52.993Z,6.50
2022-11-24T05:37:54.722Z,8.05
2022-11-24T05:38:56.412Z,8.43
2022-11-24T05:39:58.071Z,8.40
2022-11-24T05:41:04.795Z,8.15
2022-11-24T05:42:26.701Z,8.13
2022-11-24T05:43:28.597Z,7.57
2022-11-24T05:44:30.237Z,7.07
2022-11-24T05:45:31.875Z,8.27
2022-11-24T05:46:33.703Z,7.65
2022-11-24T05:47:36.146Z,7.03
2022-11-24T05:48:37.840Z,7.00
2022-11-24T05:49:39.691Z,7.43
2022-11-24T05:50:41.747Z,7.32
2022-11-24T05:51:43.412Z,7.25
2022-11-24T05:52:45.330Z,8.25
2022-11-24T05:53:46.955Z,8.40
2022-11-24T05:54:48.978Z,8.98
2022-11-24T05:55:50.623Z,8.45
2022-11-24T05:56:52.262Z,8.68
2022-11-24T05:58:07.851Z,10.18
2022-11-24T05:59:10.123Z,10.13
2022-11-24T06:00:13.134Z,10.95
2022-11-24T06:01:14.805Z,11.15
2022-11-24T06:02:16.617Z,11.15
2022-11-24T06:03:18.324Z,10.70
2022-11-24T06:04:20.029Z,11.15
2022-11-24T06:05:21.926Z,11.00
2022-11-24T06:06:23.575Z,11.98
2022-11-24T06:07:25.329Z,13.00
2022-11-24T06:08:31.083Z,12.70
2022-11-24T06:09:35.491Z,14.52
2022-11-24T06:10:37.197Z,14.70
2022-11-24T06:11:38.911Z,15.88
2022-11-24T06:12:40.553Z,15.48
2022-11-24T06:13:42.314Z,14.95
2022-11-24T06:14:44.319Z,16.70
2022-11-24T06:15:46.565Z,17.45
2022-11-24T06:16:48.254Z,18.65
2022-11-24T06:17:54.943Z,16.27
2022-11-24T06:18:56.707Z,16.73
2022-11-24T06:19:58.392Z,15.77
2022-11-24T06:21:10.819Z,16.17
2022-11-24T06:22:12.769Z,17.85
2022-11-24T06:23:14.416Z,16.70
2022-11-24T06:24:16.080Z,16.88
2022-11-24T06:25:18.147Z,15.98
2022-11-24T06:26:19.942Z,16.90
2022-11-24T06:27:21.631Z,16.73
2022-11-24T06:28:23.327Z,16.80
2022-11-24T06:29:25.055Z,16.73
2022-11-24T06:30:26.723Z,15.82
2022-11-24T06:31:28.464Z,16.60
2022-11-24T06:32:30.164Z,16.00
2022-11-24T06:33:36.573Z,15.20
2022-11-24T06:34:38.212Z,15.65
2022-11-24T06:35:39.906Z,14.45
2022-11-24T06:36:41.757Z,15.13
2022-11-24T06:37:43.433Z,14.43
2022-11-24T06:38:45.207Z,13.65
2022-11-24T06:39:46.953Z,12.82
2022-11-24T06:40:48.607Z,15.77
2022-11-24T06:41:50.823Z,12.25
2022-11-24T06:42:52.781Z,12.73
2022-11-24T06:43:54.474Z,15.38
2022-11-24T06:44:56.122Z,15.13
2022-11-24T06:45:58.324Z,14.45
2022-11-24T06:47:00.153Z,16.45
2022-11-24T06:48:01.829Z,16.48
2022-11-24T06:49:03.600Z,12.68
2022-11-24T06:50:05.801Z,9.30
2022-11-24T06:51:10.848Z,8.82
2022-11-24T06:52:12.494Z,8.93
2022-11-24T06:53:14.163Z,8.75
2022-11-24T06:54:18.007Z,9.35
2022-11-24T06:55:19.649Z,7.85
2022-11-24T06:56:21.714Z,8.63
2022-11-24T06:57:23.387Z,8.07
2022-11-24T06:58:25.019Z,8.30
2022-11-24T06:59:27.824Z,9.43
2022-11-24T07:00:32.179Z,8.13
2022-11-24T07:01:33.913Z,8.75
2022-11-24T07:02:35.693Z,7.90
2022-11-24T07:03:37.381Z,8.98
2022-11-24T07:04:39.058Z,7.78
2022-11-24T07:05:40.746Z,7.32
2022-11-24T07:06:43.106Z,8.57
2022-11-24T07:07:44.810Z,8.60
2022-11-24T07:08:47.218Z,8.73
2022-11-24T07:09:48.910Z,8.63
2022-11-24T07:10:50.847Z,8.70
2022-11-24T07:11:55.324Z,8.25
2022-11-24T07:12:56.952Z,8.05
2022-11-24T07:14:00.234Z,8.68
2022-11-24T07:15:02.136Z,7.97
2022-11-24T07:16:18.899Z,8.13
2022-11-24T07:17:20.619Z,8.88
2022-11-24T07:18:22.602Z,8.38
2022-11-24T07:19:25.210Z,8.43
2022-11-24T07:20:27.088Z,7.57
2022-11-24T07:21:30.658Z,6.75
2022-11-24T07:22:32.564Z,7.55
2022-11-24T07:23:34.239Z,7.30
2022-11-24T07:24:36.252Z,6.65
2022-11-24T07:25:38.113Z,6.63
2022-11-24T07:26:40.351Z,6.60
2022-11-24T07:27:42.045Z,6.75
2022-11-24T07:28:43.737Z,6.93
2022-11-24T07:29:45.371Z,7.55
2022-11-24T07:30:47.014Z,7.07
2022-11-24T07:31:48.740Z,6.65
2022-11-24T07:32:50.481Z,6.57
2022-11-24T07:33:54.137Z,7.55
2022-11-24T07:34:55.785Z,7.13
2022-11-24T07:35:59.972Z,7.15
2022-11-24T07:37:01.635Z,7.13
2022-11-24T07:38:03.374Z,7.93
2022-11-24T07:39:07.052Z,7.70
2022-11-24T07:40:09.493Z,7.15
2022-11-24T07:41:13.105Z,7.03
2022-11-24T07:42:14.800Z,8.00
2022-11-24T07:43:20.129Z,7.60
2022-11-24T07:44:22.136Z,7.72
2022-11-24T07:45:23.779Z,7.45
2022-11-24T07:46:25.575Z,7.80
2022-11-24T07:47:27.416Z,7.07
2022-11-24T07:48:29.169Z,7.95
2022-11-24T07:49:30.786Z,7.47
2022-11-24T07:50:32.556Z,7.60
2022-11-24T07:51:34.201Z,7.22
2022-11-24T07:52:37.011Z,7.80
2022-11-24T07:53:39.844Z,7.32
2022-11-24T07:54:41.494Z,6.72
2022-11-24T07:55:43.860Z,7.40
2022-11-24T07:56:48.645Z,7.30
2022-11-24T07:57:50.322Z,7.35
2022-11-24T07:58:53.139Z,6.72
2022-11-24T07:59:56.305Z,7.40
2022-11-24T08:00:58.268Z,7.10
2022-11-24T08:01:59.951Z,6.18
2022-11-24T08:03:01.803Z,6.18
2022-11-24T08:04:03.598Z,6.55
2022-11-24T08:05:06.178Z,6.10
2022-11-24T08:06:24.029Z,5.85
2022-11-24T08:07:26.153Z,5.80
2022-11-24T08:08:27.897Z,6.15
2022-11-24T08:09:29.536Z,5.55
2022-11-24T08:10:31.248Z,5.60
2022-11-24T08:11:33.216Z,6.18
2022-11-24T08:12:34.951Z,5.82
2022-11-24T08:13:37.310Z,5.38
2022-11-24T08:14:38.992Z,5.60
2022-11-24T08:15:40.641Z,5.72
2022-11-24T08:16:42.407Z,5.63
2022-11-24T08:17:44.175Z,5.45
2022-11-24T08:18:51.399Z,5.25
2022-11-24T08:19:53.072Z,5.43
2022-11-24T08:20:58.274Z,5.22
2022-11-24T08:21:59.940Z,5.07
2022-11-24T08:23:01.635Z,4.85
2022-11-24T08:24:03.636Z,5.13
2022-11-24T08:25:05.701Z,4.85
2022-11-24T08:26:10.818Z,5.00
2022-11-24T08:27:14.151Z,4.88
2022-11-24T08:28:15.840Z,4.57
2022-11-24T08:29:17.605Z,4.55
2022-11-24T08:30:20.152Z,4.57
2022-11-24T08:31:22.032Z,4.93
2022-11-24T08:32:23.853Z,4.85
2022-11-24T08:33:25.566Z,4.90
2022-11-24T08:34:27.392Z,4.72
2022-11-24T08:35:29.195Z,5.00
2022-11-24T08:36:31.059Z,4.95
2022-11-24T08:37:32.825Z,4.70
2022-11-24T08:38:35.121Z,4.75
2022-11-24T08:39:36.854Z,4.65
2022-11-24T08:40:38.511Z,4.43
2022-11-24T08:41:40.274Z,5.28
2022-11-24T08:42:41.937Z,4.53
2022-11-24T08:43:43.893Z,4.60
2022-11-24T08:44:45.563Z,4.78
2022-11-24T08:45:47.249Z,4.32
2022-11-24T08:46:50.021Z,4.25
2022-11-24T08:47:54.171Z,4.53
2022-11-24T08:48:56.064Z,4.75
2022-11-24T08:49:57.742Z,4.30
2022-11-24T08:51:00.496Z,4.93
2022-11-24T08:52:02.168Z,4.55
2022-11-24T08:53:03.843Z,4.85
2022-11-24T08:54:05.551Z,4.35
2022-11-24T08:55:07.476Z,5.03
2022-11-24T08:56:10.909Z,5.30
2022-11-24T08:57:18.729Z,4.22
2022-11-24T08:58:23.333Z,4.53
2022-11-24T08:59:25.106Z,4.50
2022-11-24T09:00:26.813Z,4.30
2022-11-24T09:01:29.416Z,4.00
2022-11-24T09:02:31.173Z,4.22
2022-11-24T09:03:32.893Z,4.20
2022-11-24T09:04:34.870Z,4.30
2022-11-24T09:05:51.886Z,3.90
2022-11-24T09:06:54.358Z,4.35
2022-11-24T09:07:56.184Z,4.28
2022-11-24T09:08:59.934Z,4.38
2022-11-24T09:10:01.997Z,4.45
2022-11-24T09:11:09.288Z,4.32
2022-11-24T09:12:14.390Z,4.10
2022-11-24T09:13:16.408Z,4.65
2022-11-24T09:14:18.063Z,4.47
2022-11-24T09:15:20.458Z,4.35
2022-11-24T09:16:26.114Z,5.35
2022-11-24T09:17:28.170Z,4.70
2022-11-24T09:18:30.572Z,5.22
2022-11-24T09:19:32.553Z,4.65
2022-11-24T09:20:34.532Z,4.50
2022-11-24T09:21:39.444Z,4.78
2022-11-24T09:22:41.852Z,4.20
2022-11-24T09:23:44.546Z,4.75
2022-11-24T09:24:46.212Z,4.00
2022-11-24T09:25:47.896Z,4.20
2022-11-24T09:26:49.573Z,4.15
2022-11-24T09:27:51.812Z,3.97
2022-11-24T09:28:55.594Z,4.03
2022-11-24T09:30:35.692Z,4.00
2022-11-24T09:31:39.347Z,3.97
2022-11-24T09:32:41.066Z,4.25
2022-11-24T09:33:43.313Z,4.00
2022-11-24T09:34:44.985Z,3.75
2022-11-24T09:35:50.154Z,3.15
2022-11-24T09:36:51.815Z,2.90
2022-11-24T09:37:53.445Z,2.90
2022-11-24T09:38:55.577Z,2.88
2022-11-24T09:39:57.301Z,2.88
2022-11-24T09:41:17.461Z,2.38
2022-11-24T09:42:37.162Z,3.10
2022-11-24T09:43:46.456Z,2.67
2022-11-24T09:45:15.505Z,3.25
2022-11-24T09:46:19.992Z,2.80
2022-11-24T09:47:43.013Z,2.67
2022-11-24T09:48:49.470Z,2.40
2022-11-24T09:50:03.071Z,2.30
2022-11-24T09:51:05.993Z,2.33
2022-11-24T09:52:16.783Z,2.35
2022-11-24T09:53:44.780Z,2.00
2022-11-24T09:54:58.444Z,1.80
2022-11-24T09:56:06.325Z,2.00
2022-11-24T09:57:44.203Z,2.00
2022-11-24T09:59:45.626Z,1.95
2022-11-24T10:00:55.835Z,2.08
2022-11-24T10:02:01.390Z,1.67
2022-11-24T10:03:03.888Z,1.60
2022-11-24T10:04:19.214Z,1.45
2022-11-24T10:05:23.718Z,1.52
2022-11-24T10:06:38.898Z,1.88
2022-11-24T10:07:59.399Z,1.55
2022-11-24T10:09:20.314Z,1.42
2022-11-24T10:10:29.928Z,1.65
2022-11-24T10:11:46.029Z,1.45
2022-11-24T10:12:47.940Z,1.48
2022-11-24T10:14:01.733Z,1.35
2022-11-24T10:15:19.249Z,1.27
2022-11-24T10:16:23.763Z,1.33
2022-11-24T10:17:37.774Z,1.60
2022-11-24T10:18:39.442Z,1.70
2022-11-24T10:19:46.772Z,1.70
2022-11-24T10:20:48.361Z,1.20
2022-11-24T10:22:12.920Z,1.27
2022-11-24T10:23:40.986Z,1.63
2022-11-24T10:24:54.686Z,1.33
2022-11-24T10:26:00.897Z,1.30
2022-11-24T10:27:20.074Z,1.10
2022-11-24T10:28:21.735Z,1.23
2022-11-24T10:29:26.118Z,1.20
2022-11-24T10:30:28.361Z,2.05
2022-11-24T10:31:36.772Z,1.30
2022-11-24T10:32:45.151Z,0.98
2022-11-24T10:33:47.906Z,1.33
2022-11-24T10:34:50.718Z,1.60
2022-11-24T10:36:09.660Z,1.33
2022-11-24T10:37:11.267Z,1.13
2022-11-24T10:38:21.988Z,1.25
2022-11-24T10:39:32.802Z,1.42
2022-11-24T10:40:59.143Z,1.40
2022-11-24T10:42:03.296Z,1.70
2022-11-24T10:43:10.415Z,1.83
2022-11-24T10:44:15.721Z,1.65
2022-11-24T10:45:22.661Z,1.40
2022-11-24T10:46:27.289Z,1.13
2022-11-24T10:47:30.476Z,1.40
2022-11-24T10:48:41.233Z,1.20
2022-11-24T10:49:58.233Z,1.40
2022-11-24T10:51:38.823Z,1.52
2022-11-24T10:52:44.594Z,1.30
2022-11-24T10:53:48.337Z,1.10
2022-11-24T10:54:59.328Z,0.95
2022-11-24T10:56:03.876Z,1.08
2022-11-24T10:57:05.565Z,1.45
2022-11-24T10:58:16.345Z,1.08
2022-11-24T10:59:38.398Z,1.00
2022-11-24T11:00:40.385Z,1.40
2022-11-24T11:01:42.376Z,1.13
2022-11-24T11:02:45.209Z,1.10
2022-11-24T11:03:59.327Z,1.15
2022-11-24T11:05:32.729Z,1.40
2022-11-24T11:06:36.396Z,1.40
2022-11-24T11:07:38.135Z,1.40
2022-11-24T11:08:40.433Z,1.45
2022-11-24T11:09:42.109Z,1.60
2022-11-24T11:10:44.940Z,1.25
2022-11-24T11:11:48.899Z,1.42
2022-11-24T11:12:50.750Z,1.70
2022-11-24T11:14:02.978Z,1.38
2022-11-24T11:15:23.161Z,1.30
2022-11-24T11:16:32.578Z,1.33
2022-11-24T11:17:37.213Z,1.40
2022-11-24T11:18:38.924Z,1.13
2022-11-24T11:19:49.568Z,1.35
2022-11-24T11:20:58.157Z,1.23
2022-11-24T11:22:24.663Z,1.33
2022-11-24T11:23:35.915Z,1.35
2022-11-24T11:24:43.538Z,1.63
2022-11-24T11:25:45.192Z,1.40
2022-11-24T11:26:46.897Z,1.20
2022-11-24T11:27:49.256Z,1.70
2022-11-24T11:31:15.279Z,1.85
2022-11-24T11:34:56.319Z,1.80
2022-11-24T11:36:01.107Z,1.30
2022-11-24T11:37:04.514Z,1.30
2022-11-24T11:38:07.025Z,1.33
2022-11-24T11:39:35.839Z,1.48
2022-11-24T11:40:37.568Z,1.23
2022-11-24T11:41:46.324Z,1.55
2022-11-24T11:43:08.069Z,1.60
2022-11-24T11:44:34.245Z,1.60
2022-11-24T11:45:38.118Z,1.50
2022-11-24T11:46:39.927Z,1.40
2022-11-24T11:47:44.191Z,1.80
2022-11-24T11:48:47.542Z,1.50
2022-11-24T11:49:49.881Z,1.60
2022-11-24T11:52:37.772Z,1.88
2022-11-24T11:53:53.280Z,1.90
2022-11-24T11:55:27.072Z,1.90
2022-11-24T11:56:31.140Z,2.30
2022-11-24T11:57:35.713Z,2.65
2022-11-24T11:58:56.032Z,2.42
2022-11-24T12:00:15.687Z,2.53
2022-11-24T12:01:26.732Z,2.97
2022-11-24T12:02:55.451Z,2.97
2022-11-24T12:04:15.747Z,2.60
2022-11-24T12:05:17.374Z,2.45
2022-11-24T12:06:56.248Z,3.15
2022-11-24T12:08:20.698Z,2.45
2022-11-24T12:09:51.114Z,2.35
2022-11-24T12:10:58.568Z,2.65
2022-11-24T12:12:03.165Z,2.17
2022-11-24T12:13:10.971Z,1.88
2022-11-24T12:14:24.629Z,2.15
2022-11-24T12:15:41.576Z,1.90
2022-11-24T12:17:13.599Z,2.00
2022-11-24T12:18:57.444Z,2.08
2022-11-24T12:20:33.329Z,1.90
2022-11-24T12:22:06.267Z,2.30
2022-11-24T12:23:14.085Z,2.60
2022-11-24T12:24:15.720Z,2.45
2022-11-24T12:25:17.343Z,2.45
2022-11-24T12:26:31.089Z,2.40
2022-11-24T12:27:50.209Z,2.30
2022-11-24T12:28:51.848Z,2.35
2022-11-24T12:30:10.327Z,2.85
2022-11-24T12:31:36.423Z,2.75
2022-11-24T12:33:33.017Z,2.70
2022-11-24T12:34:59.814Z,3.50
2022-11-24T12:36:16.163Z,3.60
2022-11-24T12:37:32.906Z,3.67
2022-11-24T12:38:37.324Z,3.95
2022-11-24T12:40:03.849Z,2.97
2022-11-24T12:41:43.280Z,3.28
2022-11-24T12:43:18.557Z,3.50
2022-11-24T12:44:45.002Z,3.60
2022-11-24T12:46:04.799Z,3.45
2022-11-24T12:47:19.663Z,3.53
2022-11-24T12:48:21.367Z,2.70
2022-11-24T12:49:23.026Z,2.70
2022-11-24T12:50:28.776Z,2.70
2022-11-24T12:51:40.205Z,2.88
2022-11-24T12:52:48.438Z,2.95
2022-11-24T12:53:53.027Z,2.53
2022-11-24T12:54:55.657Z,3.03
2022-11-24T12:56:11.042Z,3.10
2022-11-24T12:57:26.192Z,3.15
2022-11-24T12:58:55.912Z,2.80
2022-11-24T13:00:29.236Z,3.10
2022-11-24T13:01:53.426Z,3.60
2022-11-24T13:03:27.645Z,3.00
2022-11-24T13:04:42.731Z,3.17
2022-11-24T13:05:56.413Z,3.40
2022-11-24T13:07:03.307Z,3.33
2022-11-24T13:08:06.017Z,3.30
2022-11-24T13:09:09.447Z,3.80
2022-11-24T13:10:53.531Z,3.85
2022-11-24T13:11:50.113Z,4.00
2022-11-24T13:13:09.500Z,4.60
2022-11-24T13:14:18.887Z,5.47
2022-11-24T13:15:44.795Z,4.93
2022-11-24T13:18:49.368Z,3.75
2022-11-24T13:19:51.588Z,3.58
2022-11-24T13:20:53.515Z,3.70
2022-11-24T13:22:04.710Z,3.90
2022-11-24T13:24:16.577Z,3.40
2022-11-24T13:25:28.778Z,3.22
2022-11-24T13:26:42.346Z,3.20
2022-11-24T13:27:46.673Z,3.10
2022-11-24T13:29:13.412Z,3.33
2022-11-24T13:30:35.255Z,3.10
2022-11-24T13:31:37.061Z,2.95
2022-11-24T13:32:38.747Z,3.08
2022-11-24T13:33:40.691Z,3.22
2022-11-24T13:34:49.915Z,3.40
2022-11-24T13:36:04.373Z,4.65
2022-11-24T13:37:26.537Z,4.50
2022-11-24T13:38:44.610Z,4.22
2022-11-24T13:39:55.180Z,3.20
2022-11-24T13:41:20.954Z,3.20
2022-11-24T13:42:43.942Z,3.13
2022-11-24T13:44:16.329Z,2.28
2022-11-24T13:45:39.924Z,2.30
2022-11-24T13:47:05.632Z,2.42
2022-11-24T13:48:20.778Z,3.10
2022-11-24T13:49:23.003Z,2.95
2022-11-24T13:50:50.928Z,2.72
2022-11-24T13:51:57.179Z,2.83
2022-11-24T13:53:09.339Z,2.70
2022-11-24T13:54:11.369Z,2.83
2022-11-24T13:55:13.010Z,3.30
2022-11-24T13:56:17.383Z,2.83
2022-11-24T13:57:42.631Z,3.30
2022-11-24T13:58:48.096Z,3.70
2022-11-24T13:59:49.796Z,3.08
2022-11-24T14:01:26.127Z,2.80
2022-11-24T14:02:29.322Z,2.33
2022-11-24T14:03:47.573Z,2.33
2022-11-24T14:05:02.910Z,2.30
2022-11-24T14:06:05.522Z,2.53
2022-11-24T14:07:12.645Z,2.00
2022-11-24T14:08:21.960Z,2.20
2022-11-24T14:09:51.221Z,2.33
2022-11-24T14:10:55.941Z,2.40
2022-11-24T14:12:20.330Z,2.00
2022-11-24T14:13:34.579Z,2.20
2022-11-24T14:14:36.442Z,2.25
2022-11-24T14:15:38.494Z,2.60
2022-11-24T14:16:40.176Z,2.00
2022-11-24T14:17:41.903Z,2.50
2022-11-24T14:18:46.851Z,2.05
2022-11-24T14:19:51.084Z,2.30
2022-11-24T14:20:52.752Z,2.28
2022-11-24T14:21:54.490Z,2.30
2022-11-24T14:22:56.209Z,2.25
2022-11-24T14:24:19.493Z,2.47
2022-11-24T14:25:30.352Z,4.47
2022-11-24T14:26:35.654Z,2.20
2022-11-24T14:27:39.094Z,2.60
2022-11-24T14:28:41.164Z,2.53
2022-11-24T14:30:01.019Z,2.50
2022-11-24T14:31:19.426Z,2.53
2022-11-24T14:32:22.064Z,2.50
2022-11-24T14:33:25.720Z,2.10
2022-11-24T14:34:30.208Z,2.58
2022-11-24T14:35:34.853Z,2.00
2022-11-24T14:36:36.792Z,2.28
2022-11-24T14:37:38.480Z,2.00
2022-11-24T14:38:40.223Z,2.15
2022-11-24T14:39:42.748Z,2.10
2022-11-24T14:40:53.695Z,2.55